Time;durP1;ratioP1;P1;durP2;ratioP2;P2;SDS_P1;SDS_P2;PMS_P1;PMS_P2;Temp;Humidity;BMP_temperature;BMP_pressure;BME280_temperature;BME280_humidity;BME280_pressure;Samples;Min_cycle;Max_cycle;Signal;HPM_P1;HPM_P2
2023/06/14 00:02:22;;;;;;;1.80;0.60;;;13.30;99.90;;;;;;5086815;28;20443;-66
2023/06/14 00:04:51;;;;;;;2.05;0.82;;;13.60;99.90;;;;;;5086953;28;20060;-66
2023/06/14 00:07:18;;;;;;;1.95;0.70;;;13.70;99.90;;;;;;5085008;28;20422;-66
2023/06/14 00:09:46;;;;;;;1.73;0.50;;;13.80;99.90;;;;;;5086987;28;20857;-66
2023/06/14 00:12:13;;;;;;;1.92;0.85;;;13.90;99.90;;;;;;5086255;28;20452;-68
2023/06/14 00:14:41;;;;;;;0.95;0.40;;;14.10;99.90;;;;;;5087777;28;20028;-69
2023/06/14 00:17:08;;;;;;;5.03;0.68;;;14.20;99.90;;;;;;5091398;28;20031;-67
2023/06/14 00:19:36;;;;;;;1.85;0.40;;;14.30;99.90;;;;;;5071773;28;20094;-66
2023/06/14 00:22:04;;;;;;;0.85;0.30;;;14.50;98.50;;;;;;5090980;28;20101;-68
2023/06/14 00:24:31;;;;;;;0.85;0.40;;;14.50;98.70;;;;;;5089601;28;20152;-67
2023/06/14 00:26:58;;;;;;;0.85;0.40;;;14.60;98.70;;;;;;5091822;28;20102;-67
2023/06/14 00:29:26;;;;;;;1.90;0.50;;;14.70;98.10;;;;;;5092264;28;20362;-68
2023/06/14 00:31:53;;;;;;;3.85;0.80;;;14.80;96.40;;;;;;5091265;28;20028;-68
2023/06/14 00:34:21;;;;;;;1.17;0.52;;;14.90;96.00;;;;;;5090443;28;20058;-69
2023/06/14 00:36:48;;;;;;;2.55;0.40;;;15.00;95.90;;;;;;5091461;28;20017;-65
2023/06/14 00:39:16;;;;;;;2.40;0.50;;;15.00;95.30;;;;;;5088250;28;20027;-69
2023/06/14 00:41:43;;;;;;;0.90;0.32;;;15.00;95.00;;;;;;5088705;28;20062;-68
2023/06/14 00:44:11;;;;;;;9.25;0.77;;;15.10;93.40;;;;;;5088633;28;20028;-67
2023/06/14 00:46:39;;;;;;;4.38;0.60;;;15.30;93.20;;;;;;5091357;28;20025;-66
2023/06/14 00:49:06;;;;;;;2.90;1.33;;;15.40;92.20;;;;;;5091307;28;20416;-66
2023/06/14 00:51:34;;;;;;;1.75;0.30;;;15.40;91.20;;;;;;5091208;28;20020;-66
2023/06/14 00:54:01;;;;;;;1.38;0.60;;;15.40;89.40;;;;;;5091593;28;20024;-67
2023/06/14 00:56:29;;;;;;;1.17;0.40;;;15.50;90.00;;;;;;5080053;28;20017;-67
2023/06/14 00:58:58;;;;;;;4.10;0.60;;;15.50;89.10;;;;;;5070611;28;20484;-66
2023/06/14 01:01:25;;;;;;;3.10;0.60;;;15.50;89.40;;;;;;5087931;28;20031;-66
2023/06/14 01:03:53;;;;;;;2.22;0.30;;;15.50;90.20;;;;;;5072510;28;20056;-69
2023/06/14 01:07:03;;;;;;;1.85;0.52;;;15.60;89.70;;;;;;5070388;28;20035;-68
2023/06/14 01:09:42;;;;;;;3.60;0.35;;;15.60;87.80;;;;;;5069661;28;20024;-66
2023/06/14 01:12:31;;;;;;;4.65;0.70;;;15.80;85.80;;;;;;5083862;28;20038;-72
2023/06/14 01:15:01;;;;;;;3.00;0.55;;;15.80;86.80;;;;;;5090109;28;20126;-66
2023/06/14 01:17:31;;;;;;;1.30;0.30;;;15.90;84.70;;;;;;5091100;28;20423;-64
2023/06/14 01:20:02;;;;;;;1.20;0.30;;;16.00;83.30;;;;;;5089288;28;20111;-68
2023/06/14 01:22:30;;;;;;;4.22;0.30;;;16.10;84.50;;;;;;5089652;28;20476;-70
2023/06/14 01:24:58;;;;;;;2.20;0.50;;;16.10;84.00;;;;;;5089955;28;20036;-67
2023/06/14 01:27:28;;;;;;;0.85;0.38;;;16.10;84.20;;;;;;5089761;28;20111;-71
2023/06/14 01:29:57;;;;;;;2.72;0.60;;;16.20;86.20;;;;;;5090776;28;20519;-72
2023/06/14 01:32:29;;;;;;;3.28;1.60;;;16.30;85.90;;;;;;5091274;28;20059;-70
2023/06/14 01:34:57;;;;;;;4.93;1.00;;;16.20;81.70;;;;;;5089195;28;20384;-70
2023/06/14 01:37:25;;;;;;;4.65;0.60;;;16.30;82.90;;;;;;5085074;28;20383;-68
2023/06/14 01:39:53;;;;;;;3.08;0.52;;;16.30;81.20;;;;;;5090751;28;20458;-71
2023/06/14 01:42:21;;;;;;;2.38;0.40;;;16.40;80.80;;;;;;5091300;28;20024;-71
2023/06/14 01:44:50;;;;;;;1.15;0.77;;;16.50;77.20;;;;;;5089240;28;20100;-72
2023/06/14 01:47:18;;;;;;;0.88;0.40;;;16.60;78.40;;;;;;5089656;28;20020;-70
2023/06/14 01:49:47;;;;;;;1.98;0.45;;;16.80;73.80;;;;;;5088405;28;20028;-68
2023/06/14 01:52:15;;;;;;;1.42;0.40;;;16.80;71.30;;;;;;5090428;28;20069;-70
2023/06/14 01:54:43;;;;;;;0.73;0.35;;;16.80;69.50;;;;;;5089807;28;20032;-70
2023/06/14 01:57:11;;;;;;;0.93;0.38;;;16.80;70.10;;;;;;5090504;28;20115;-71
2023/06/14 01:59:38;;;;;;;1.58;0.65;;;16.80;69.20;;;;;;5090004;28;20539;-70
2023/06/14 02:02:06;;;;;;;1.75;0.20;;;16.80;68.80;;;;;;5088414;28;20054;-71
2023/06/14 02:04:37;;;;;;;2.58;0.52;;;16.80;71.20;;;;;;5078694;28;20464;-71
2023/06/14 02:07:04;;;;;;;0.77;0.30;;;17.00;73.30;;;;;;5089896;28;20031;-72
2023/06/14 02:09:31;;;;;;;1.73;0.43;;;17.00;71.90;;;;;;5090242;28;20030;-70
2023/06/14 02:11:59;;;;;;;1.90;0.32;;;17.00;72.70;;;;;;5086347;28;20031;-72
2023/06/14 02:14:27;;;;;;;21.15;11.38;;;17.00;72.60;;;;;;5087831;28;20031;-73
2023/06/14 02:16:54;;;;;;;2.70;0.50;;;17.00;70.70;;;;;;5088502;28;20571;-69
2023/06/14 02:19:22;;;;;;;1.00;0.30;;;17.10;68.90;;;;;;5091002;28;20024;-66
2023/06/14 02:21:49;;;;;;;1.15;0.30;;;17.00;68.20;;;;;;5090802;28;20036;-66
2023/06/14 02:24:17;;;;;;;5.25;0.40;;;17.00;69.50;;;;;;5090703;28;20031;-65
2023/06/14 02:26:44;;;;;;;1.40;0.43;;;17.10;69.20;;;;;;5087504;28;20547;-65
2023/06/14 02:29:14;;;;;;;1.85;0.30;;;17.20;67.80;;;;;;5089117;28;20024;-66
2023/06/14 02:31:42;;;;;;;3.33;0.40;;;17.30;69.40;;;;;;5078907;28;20392;-65
2023/06/14 02:34:10;;;;;;;0.95;0.20;;;17.30;65.60;;;;;;5085932;28;20024;-65
2023/06/14 02:36:41;;;;;;;6.68;0.50;;;17.40;66.70;;;;;;5090229;28;20024;-66
2023/06/14 02:39:10;;;;;;;0.85;0.32;;;17.40;68.50;;;;;;5088371;28;20036;-66
2023/06/14 02:41:38;;;;;;;1.42;0.60;;;17.40;65.70;;;;;;5089946;28;20044;-68
2023/06/14 02:44:06;;;;;;;4.28;0.47;;;17.40;66.60;;;;;;5077268;28;20117;-63
2023/06/14 02:46:34;;;;;;;2.15;0.28;;;17.40;66.40;;;;;;5071256;28;20071;-65
2023/06/14 02:49:02;;;;;;;1.63;0.40;;;17.40;63.90;;;;;;5070131;28;20028;-66
2023/06/14 02:51:29;;;;;;;2.42;1.05;;;17.50;61.50;;;;;;5069744;28;20039;-66
2023/06/14 02:53:57;;;;;;;1.85;0.57;;;17.60;63.20;;;;;;5071543;28;20012;-65
2023/06/14 02:56:26;;;;;;;1.15;0.20;;;17.70;59.30;;;;;;5085485;28;20032;-67
2023/06/14 02:58:53;;;;;;;2.03;0.52;;;17.60;59.10;;;;;;5090417;28;20019;-66
2023/06/14 03:01:21;;;;;;;3.45;1.17;;;17.60;58.60;;;;;;5088940;28;20161;-66
2023/06/14 03:03:49;;;;;;;2.13;0.93;;;17.70;59.30;;;;;;5089811;28;20419;-66
2023/06/14 03:06:20;;;;;;;2.28;0.40;;;17.80;58.40;;;;;;5088480;28;20496;-67
2023/06/14 03:08:48;;;;;;;4.82;2.50;;;17.70;59.60;;;;;;5078446;28;20040;-68
2023/06/14 03:11:17;;;;;;;5.93;1.17;;;17.80;59.90;;;;;;5079931;28;20035;-67
2023/06/14 03:13:45;;;;;;;4.22;1.65;;;17.70;58.30;;;;;;5075207;28;20505;-67
2023/06/14 03:16:12;;;;;;;2.70;0.70;;;17.70;58.10;;;;;;5078133;28;20028;-66
2023/06/14 03:18:40;;;;;;;2.63;0.73;;;17.70;56.30;;;;;;5084821;28;20027;-67
2023/06/14 03:21:08;;;;;;;2.38;0.45;;;17.70;58.30;;;;;;5071660;28;20049;-66
2023/06/14 03:23:36;;;;;;;2.50;0.50;;;17.60;57.20;;;;;;5085370;28;20463;-66
2023/06/14 03:26:03;;;;;;;6.35;1.25;;;17.60;57.80;;;;;;5086171;28;20107;-67
2023/06/14 03:28:31;;;;;;;11.88;3.97;;;17.60;58.40;;;;;;5085836;28;20515;-66
2023/06/14 03:30:58;;;;;;;2.58;1.23;;;17.70;59.70;;;;;;5082353;28;20024;-66
2023/06/14 03:33:26;;;;;;;4.03;1.45;;;17.70;58.40;;;;;;5077954;28;20017;-69
2023/06/14 03:35:53;;;;;;;9.48;2.97;;;17.70;58.10;;;;;;5082835;28;20085;-67
2023/06/14 03:38:21;;;;;;;3.03;1.00;;;17.80;57.80;;;;;;5086298;28;20051;-67
2023/06/14 03:40:48;;;;;;;2.15;0.60;;;17.80;54.80;;;;;;5085349;28;20529;-66
2023/06/14 03:43:16;;;;;;;1.30;0.70;;;17.80;53.90;;;;;;5083970;28;20055;-68
2023/06/14 03:45:43;;;;;;;2.00;0.70;;;17.80;52.80;;;;;;5084377;28;20847;-64
2023/06/14 03:48:11;;;;;;;1.92;0.90;;;17.70;53.10;;;;;;5086990;28;20012;-64
2023/06/14 03:50:39;;;;;;;2.67;0.90;;;17.60;53.70;;;;;;5090506;28;20065;-61
2023/06/14 03:53:07;;;;;;;4.30;0.88;;;17.70;53.60;;;;;;5088662;28;20078;-61
2023/06/14 03:55:34;;;;;;;6.28;0.93;;;17.60;53.60;;;;;;5081767;28;20034;-63
2023/06/14 03:58:02;;;;;;;1.48;0.95;;;17.60;53.80;;;;;;5091974;28;20050;-64
2023/06/14 04:00:30;;;;;;;3.17;1.60;;;17.60;53.30;;;;;;5090887;28;20745;-63
2023/06/14 04:02:57;;;;;;;2.80;1.15;;;17.60;53.90;;;;;;5077464;28;20408;-66
2023/06/14 04:05:28;;;;;;;1.25;0.80;;;17.60;55.30;;;;;;5085835;28;20044;-65
2023/06/14 04:07:56;;;;;;;4.60;0.80;;;17.60;52.60;;;;;;5091091;28;20012;-64
2023/06/14 04:10:24;;;;;;;4.40;0.80;;;17.60;52.20;;;;;;5089066;28;20032;-64
2023/06/14 04:12:52;;;;;;;2.65;0.82;;;17.50;53.40;;;;;;5092186;28;20024;-63
2023/06/14 04:15:19;;;;;;;2.00;0.50;;;17.60;52.10;;;;;;5091280;28;20036;-63
2023/06/14 04:17:47;;;;;;;1.60;0.95;;;17.50;52.10;;;;;;5077616;28;20055;-63
2023/06/14 04:20:14;;;;;;;2.75;0.63;;;17.50;53.00;;;;;;5086586;28;20020;-63
2023/06/14 04:22:43;;;;;;;2.03;0.70;;;17.40;52.90;;;;;;5084734;28;20043;-63
2023/06/14 04:25:11;;;;;;;3.00;0.57;;;17.40;52.90;;;;;;5091826;28;20412;-65
2023/06/14 04:27:39;;;;;;;2.67;0.52;;;17.50;53.20;;;;;;5086490;28;20484;-66
2023/06/14 04:30:07;;;;;;;3.67;1.05;;;17.50;52.90;;;;;;5090430;28;20073;-65
2023/06/14 04:32:38;;;;;;;2.28;0.52;;;17.50;53.20;;;;;;5087743;28;20043;-64
2023/06/14 04:35:10;;;;;;;6.95;0.88;;;17.40;52.80;;;;;;5087984;28;20438;-65
2023/06/14 04:37:41;;;;;;;1.38;0.40;;;17.50;52.10;;;;;;5089251;28;20040;-66
2023/06/14 04:40:09;;;;;;;1.10;0.50;;;17.40;51.40;;;;;;5091072;28;20083;-66
2023/06/14 04:42:36;;;;;;;1.50;0.57;;;17.40;52.90;;;;;;5088868;28;20023;-64
2023/06/14 04:45:04;;;;;;;2.65;0.60;;;17.40;52.30;;;;;;5089619;28;20032;-64
2023/06/14 04:47:32;;;;;;;2.13;0.90;;;17.30;52.60;;;;;;5103428;28;20112;-62
2023/06/14 04:50:00;;;;;;;3.03;1.35;;;17.30;52.60;;;;;;5088740;28;20346;-62
2023/06/14 04:52:29;;;;;;;1.98;0.80;;;17.20;51.10;;;;;;5089526;28;20050;-63
2023/06/14 04:54:57;;;;;;;2.22;0.75;;;17.20;52.30;;;;;;5087903;28;20015;-62
2023/06/14 04:57:25;;;;;;;1.45;0.70;;;17.10;52.70;;;;;;5088959;28;20035;-63
2023/06/14 04:59:57;;;;;;;2.17;0.65;;;17.10;52.10;;;;;;5086707;28;20032;-62
2023/06/14 05:02:25;;;;;;;2.97;0.55;;;17.00;52.40;;;;;;5088092;28;20173;-62
2023/06/14 05:04:57;;;;;;;2.83;1.20;;;16.90;52.20;;;;;;5086353;28;20401;-65
2023/06/14 05:07:25;;;;;;;3.00;0.77;;;16.90;52.30;;;;;;5085199;28;20574;-63
2023/06/14 05:09:53;;;;;;;4.38;0.80;;;16.80;52.20;;;;;;5086676;28;20028;-63
2023/06/14 05:12:20;;;;;;;5.10;0.70;;;16.80;52.80;;;;;;5088466;28;20024;-64
2023/06/14 05:14:48;;;;;;;2.17;0.68;;;16.80;52.70;;;;;;5088178;28;20107;-63
2023/06/14 05:17:16;;;;;;;2.15;0.98;;;16.70;52.30;;;;;;5088806;28;20383;-62
2023/06/14 05:19:44;;;;;;;1.88;0.88;;;16.60;53.20;;;;;;5089374;28;20564;-62
2023/06/14 05:22:12;;;;;;;1.52;0.60;;;16.60;54.20;;;;;;5085990;28;20032;-63
2023/06/14 05:24:40;;;;;;;1.83;0.50;;;16.50;53.60;;;;;;5083927;28;20455;-64
2023/06/14 05:27:08;;;;;;;1.50;0.57;;;16.50;53.60;;;;;;5086843;28;20020;-63
2023/06/14 05:29:36;;;;;;;4.00;1.10;;;16.40;53.80;;;;;;5089345;28;20031;-63
2023/06/14 05:32:03;;;;;;;3.20;0.68;;;16.40;52.90;;;;;;5091032;28;20022;-67
2023/06/14 05:34:34;;;;;;;1.38;0.57;;;16.30;53.10;;;;;;5087941;28;20028;-66
2023/06/14 05:37:03;;;;;;;1.65;0.50;;;16.20;53.90;;;;;;5089057;28;20035;-64
2023/06/14 05:39:31;;;;;;;1.75;0.65;;;16.20;54.20;;;;;;5084624;28;20027;-63
2023/06/14 05:42:01;;;;;;;4.20;0.88;;;16.10;54.50;;;;;;5089060;28;20104;-65
2023/06/14 05:44:29;;;;;;;2.42;0.50;;;16.00;54.80;;;;;;5090727;28;20024;-64
2023/06/14 05:46:56;;;;;;;1.30;0.52;;;16.00;54.50;;;;;;5087357;28;20504;-65
2023/06/14 05:49:24;;;;;;;5.22;0.95;;;15.90;55.20;;;;;;5084230;28;20040;-65
2023/06/14 05:51:52;;;;;;;3.50;0.75;;;15.80;56.20;;;;;;5090690;28;20028;-63
2023/06/14 05:54:19;;;;;;;1.73;0.50;;;15.70;56.20;;;;;;5085567;28;20032;-62
2023/06/14 05:56:47;;;;;;;3.83;1.02;;;15.70;56.10;;;;;;5088722;28;20210;-62
2023/06/14 05:59:14;;;;;;;0.95;0.50;;;15.60;56.50;;;;;;5083127;28;20945;-62
2023/06/14 06:01:42;;;;;;;0.90;0.45;;;15.50;56.50;;;;;;5087615;28;20454;-64
2023/06/14 06:04:09;;;;;;;3.85;0.65;;;15.40;56.80;;;;;;5088316;28;20505;-62
2023/06/14 06:06:37;;;;;;;2.00;0.88;;;15.40;56.50;;;;;;5089534;28;20063;-62
2023/06/14 06:09:04;;;;;;;1.23;0.55;;;15.30;56.20;;;;;;5087310;28;20099;-62
2023/06/14 06:11:32;;;;;;;4.43;1.10;;;15.20;56.80;;;;;;5085663;28;20032;-63
2023/06/14 06:13:59;;;;;;;2.30;1.27;;;15.10;58.00;;;;;;5085334;28;20546;-61
2023/06/14 06:16:27;;;;;;;2.28;1.17;;;15.00;56.90;;;;;;5087904;28;20024;-62
2023/06/14 06:18:55;;;;;;;2.28;0.55;;;15.00;57.40;;;;;;5088720;28;20046;-63
2023/06/14 06:21:25;;;;;;;2.30;0.60;;;15.00;57.30;;;;;;5085354;28;20430;-62
2023/06/14 06:23:54;;;;;;;3.33;0.40;;;15.00;57.60;;;;;;5085277;28;20073;-62
2023/06/14 06:26:23;;;;;;;2.72;0.50;;;14.90;57.80;;;;;;5087167;28;20032;-65
2023/06/14 06:28:50;;;;;;;1.05;0.40;;;14.80;57.80;;;;;;5085730;28;20023;-66
2023/06/14 06:31:18;;;;;;;1.38;0.30;;;14.70;58.90;;;;;;5087153;28;20036;-66
2023/06/14 06:33:45;;;;;;;3.08;0.47;;;14.60;59.40;;;;;;5086059;28;20306;-65
2023/06/14 06:36:16;;;;;;;3.00;1.13;;;14.40;60.10;;;;;;5086769;28;21419;-64
2023/06/14 06:38:44;;;;;;;0.75;0.40;;;14.40;60.70;;;;;;5085254;28;20027;-65
2023/06/14 06:41:11;;;;;;;3.08;0.57;;;14.30;60.70;;;;;;5082288;28;20024;-64
2023/06/14 06:43:39;;;;;;;1.63;0.60;;;14.20;60.80;;;;;;5087064;28;20032;-64
2023/06/14 06:46:07;;;;;;;4.53;0.63;;;14.20;61.30;;;;;;5086091;28;20032;-65
2023/06/14 06:48:35;;;;;;;2.38;0.75;;;14.10;62.00;;;;;;5086620;28;20028;-61
2023/06/14 06:51:02;;;;;;;2.33;0.40;;;14.00;63.20;;;;;;5082413;28;20028;-66
2023/06/14 06:53:30;;;;;;;2.88;0.40;;;13.90;63.20;;;;;;5085673;28;20023;-65
2023/06/14 06:55:58;;;;;;;4.22;0.50;;;13.80;63.90;;;;;;5088904;28;20020;-65
2023/06/14 06:58:25;;;;;;;5.20;0.65;;;13.80;64.60;;;;;;5084272;28;20031;-63
2023/06/14 07:00:53;;;;;;;1.65;0.80;;;13.80;64.90;;;;;;5075278;28;20046;-65
2023/06/14 07:03:20;;;;;;;2.47;1.02;;;13.60;65.50;;;;;;5086171;28;20122;-65
2023/06/14 07:05:48;;;;;;;1.50;0.70;;;13.40;66.40;;;;;;5082775;28;20040;-66
2023/06/14 07:08:15;;;;;;;2.65;0.40;;;13.40;67.10;;;;;;5081937;28;20058;-64
2023/06/14 07:10:43;;;;;;;4.03;0.65;;;13.20;68.40;;;;;;5086210;28;20023;-65
2023/06/14 07:13:11;;;;;;;2.75;0.80;;;13.20;68.20;;;;;;5087345;28;20028;-65
2023/06/14 07:15:39;;;;;;;4.43;1.40;;;13.20;69.10;;;;;;5085592;28;20433;-68
2023/06/14 07:18:08;;;;;;;1.02;0.30;;;13.20;68.90;;;;;;5086150;28;20072;-68
2023/06/14 07:20:38;;;;;;;3.63;1.58;;;13.20;68.90;;;;;;5085723;28;20488;-68
2023/06/14 07:23:05;;;;;;;1.67;0.60;;;13.20;68.60;;;;;;5087112;28;20028;-65
2023/06/14 07:25:33;;;;;;;1.35;0.60;;;13.30;69.10;;;;;;5088864;28;20035;-66
2023/06/14 07:28:00;;;;;;;1.90;0.60;;;13.30;69.30;;;;;;5087264;28;20020;-67
2023/06/14 07:30:29;;;;;;;3.20;0.65;;;13.40;69.00;;;;;;5087151;28;20031;-67
2023/06/14 07:32:57;;;;;;;7.07;0.90;;;13.40;68.60;;;;;;5082985;28;20024;-67
2023/06/14 07:35:25;;;;;;;6.15;0.60;;;13.30;68.90;;;;;;5087889;28;20412;-64
2023/06/14 07:37:52;;;;;;;4.07;0.40;;;13.20;70.10;;;;;;5087085;28;20031;-65
2023/06/14 07:40:20;;;;;;;8.85;1.10;;;13.20;70.20;;;;;;5085548;28;20028;-68
2023/06/14 07:42:47;;;;;;;9.50;1.35;;;13.10;71.30;;;;;;5082756;28;20036;-66
2023/06/14 07:45:19;;;;;;;9.27;1.08;;;13.00;71.60;;;;;;5083375;28;20027;-66
2023/06/14 07:47:46;;;;;;;9.23;1.38;;;13.00;72.40;;;;;;5086911;28;20085;-64
2023/06/14 07:50:14;;;;;;;4.97;1.00;;;12.90;73.30;;;;;;5087853;28;20024;-64
2023/06/14 07:52:41;;;;;;;5.28;0.47;;;12.70;74.20;;;;;;5087283;28;20024;-64
2023/06/14 07:55:09;;;;;;;36.67;1.90;;;12.70;74.80;;;;;;5084700;28;20031;-63
2023/06/14 07:57:36;;;;;;;2.85;0.60;;;12.70;75.70;;;;;;5075503;28;20016;-63
2023/06/14 08:00:07;;;;;;;2.78;0.75;;;12.60;77.10;;;;;;5087784;28;20055;-65
2023/06/14 08:02:35;;;;;;;1.13;0.40;;;12.40;77.70;;;;;;5085994;28;20085;-64
2023/06/14 08:05:02;;;;;;;1.10;0.52;;;12.40;78.50;;;;;;5083243;28;20077;-63
2023/06/14 08:07:29;;;;;;;1.23;0.55;;;12.30;79.80;;;;;;5087319;28;20102;-65
2023/06/14 08:09:57;;;;;;;3.15;0.70;;;12.30;80.70;;;;;;5087112;28;20059;-65
2023/06/14 08:12:24;;;;;;;0.77;0.40;;;12.30;80.90;;;;;;5088094;28;20097;-64
2023/06/14 08:14:52;;;;;;;1.40;0.43;;;12.30;82.40;;;;;;5085626;28;20020;-65
2023/06/14 08:17:19;;;;;;;2.28;0.68;;;12.30;82.20;;;;;;5086352;28;20028;-63
2023/06/14 08:19:47;;;;;;;3.92;2.13;;;12.30;82.50;;;;;;5085680;28;20032;-63
2023/06/14 08:22:14;;;;;;;4.55;1.08;;;12.30;83.90;;;;;;5084999;28;20028;-63
2023/06/14 08:24:42;;;;;;;3.85;1.27;;;12.20;86.10;;;;;;5086351;28;20040;-63
2023/06/14 08:27:09;;;;;;;2.65;0.50;;;12.20;85.60;;;;;;5084421;28;20387;-64
2023/06/14 08:29:38;;;;;;;1.70;0.50;;;12.10;86.80;;;;;;5084721;28;20184;-63
2023/06/14 08:32:05;;;;;;;10.63;2.65;;;12.00;87.80;;;;;;5087212;28;20040;-65
2023/06/14 08:34:33;;;;;;;10.80;4.65;;;11.90;89.60;;;;;;5084817;28;20093;-65
2023/06/14 08:37:00;;;;;;;3.17;1.63;;;11.90;90.60;;;;;;5085794;28;20024;-63
2023/06/14 08:39:27;;;;;;;1.58;0.90;;;11.90;90.30;;;;;;5086728;28;20068;-65
2023/06/14 08:41:57;;;;;;;1.55;0.50;;;12.00;89.90;;;;;;5088055;28;20113;-65
2023/06/14 08:44:24;;;;;;;3.88;0.93;;;12.00;90.00;;;;;;5087456;28;20024;-66
2023/06/14 08:46:53;;;;;;;4.10;0.50;;;12.00;88.90;;;;;;5088803;28;20442;-66
2023/06/14 08:49:21;;;;;;;2.45;0.60;;;12.00;89.10;;;;;;5085334;28;20016;-65
2023/06/14 08:51:51;;;;;;;0.43;0.20;;;12.00;89.40;;;;;;5088902;28;20484;-67
2023/06/14 08:54:20;;;;;;;6.32;1.13;;;11.90;89.30;;;;;;5087529;28;20024;-68
2023/06/14 08:56:48;;;;;;;6.25;3.65;;;11.80;91.00;;;;;;5070852;28;20024;-60
2023/06/14 08:59:17;;;;;;;7.85;4.85;;;11.80;91.00;;;;;;5090231;28;20028;-61
2023/06/14 09:01:47;;;;;;;3.88;1.17;;;11.80;91.10;;;;;;5081558;28;20131;-62
2023/06/14 09:04:15;;;;;;;29.73;9.93;;;11.70;91.10;;;;;;5086062;28;20056;-61
2023/06/14 09:06:43;;;;;;;90.90;30.27;;;11.80;91.80;;;;;;5087059;28;20046;-61
2023/06/14 09:09:12;;;;;;;267.27;107.20;;;11.70;91.80;;;;;;5084837;28;20017;-60
2023/06/14 09:11:43;;;;;;;12.50;3.53;;;11.70;92.10;;;;;;5084271;28;20020;-61
2023/06/14 09:14:10;;;;;;;5.20;1.52;;;11.60;92.20;;;;;;5087335;28;20114;-65
2023/06/14 09:16:38;;;;;;;3.17;0.80;;;11.60;92.50;;;;;;5082695;28;20035;-69
2023/06/14 09:19:05;;;;;;;2.50;0.93;;;11.50;92.90;;;;;;5082006;28;20381;-68
2023/06/14 09:21:36;;;;;;;1.83;0.63;;;11.50;93.60;;;;;;5082140;28;20028;-68
2023/06/14 09:24:04;;;;;;;6.75;1.25;;;11.40;94.00;;;;;;5086744;28;20052;-68
2023/06/14 09:26:31;;;;;;;3.58;1.17;;;11.30;94.70;;;;;;5085116;28;20036;-68
2023/06/14 09:28:59;;;;;;;3.05;1.45;;;11.20;96.40;;;;;;5086975;28;20027;-67
2023/06/14 09:31:29;;;;;;;2.65;0.90;;;11.10;96.90;;;;;;5086264;28;20598;-67
2023/06/14 09:33:57;;;;;;;2.65;0.82;;;11.10;97.10;;;;;;5085973;28;20411;-66
2023/06/14 09:36:25;;;;;;;3.30;1.25;;;11.10;96.90;;;;;;5089009;28;20457;-67
2023/06/14 09:39:08;;;;;;;8.63;3.95;;;11.10;97.40;;;;;;5074024;28;20032;-65
2023/06/14 09:41:43;;;;;;;25.75;6.53;;;11.00;97.90;;;;;;5087906;28;20060;-66
2023/06/14 09:44:12;;;;;;;45.85;11.07;;;10.90;98.70;;;;;;5088427;28;20030;-67
2023/06/14 09:46:39;;;;;;;39.85;9.73;;;10.80;99.00;;;;;;5085492;28;20035;-67
2023/06/14 09:49:07;;;;;;;67.03;14.63;;;10.60;99.20;;;;;;5085229;28;20044;-67
2023/06/14 09:51:37;;;;;;;48.03;10.38;;;10.50;99.90;;;;;;5087496;28;20115;-68
2023/06/14 09:54:05;;;;;;;3.78;2.05;;;10.30;99.90;;;;;;5087136;28;20047;-67
2023/06/14 09:56:41;;;;;;;5.07;1.35;;;10.40;99.90;;;;;;5086398;28;20508;-67
2023/06/14 09:59:12;;;;;;;11.30;2.80;;;10.30;99.90;;;;;;5088362;28;20031;-65
2023/06/14 10:01:44;;;;;;;78.70;16.42;;;10.20;99.90;;;;;;5082014;28;20606;-65
2023/06/14 10:04:13;;;;;;;18.25;4.53;;;10.00;99.90;;;;;;5082950;28;20028;-68
2023/06/14 10:06:43;;;;;;;6.25;1.60;;;9.70;99.90;;;;;;5085044;28;20400;-64
2023/06/14 10:09:12;;;;;;;5.68;1.52;;;9.40;99.90;;;;;;5085567;28;20081;-65
2023/06/14 10:11:43;;;;;;;3.25;0.70;;;9.20;99.90;;;;;;5085235;28;20158;-65
2023/06/14 10:14:13;;;;;;;3.38;0.80;;;9.10;99.90;;;;;;5083103;28;20044;-65
2023/06/14 10:16:59;;;;;;;2.17;0.80;;;9.20;99.90;;;;;;5086931;28;20094;-64
2023/06/14 10:19:38;;;;;;;1.52;0.70;;;9.20;99.90;;;;;;5087256;28;20039;-64
2023/06/14 10:22:18;;;;;;;2.35;0.63;;;9.20;99.90;;;;;;5087185;28;20046;-65
2023/06/14 10:24:48;;;;;;;5.35;0.90;;;9.10;99.90;;;;;;5084874;28;20031;-66
2023/06/14 10:27:23;;;;;;;7.85;0.93;;;9.00;99.90;;;;;;5087053;28;20044;-66
2023/06/14 10:29:56;;;;;;;1.75;0.77;;;8.90;99.90;;;;;;5085461;28;20458;-66
2023/06/14 10:32:25;;;;;;;1.52;0.70;;;8.70;99.90;;;;;;5083281;28;20070;-64
2023/06/14 10:35:02;;;;;;;1.92;0.77;;;8.60;99.90;;;;;;5083386;28;20036;-64
2023/06/14 10:37:30;;;;;;;3.60;0.80;;;8.40;99.90;;;;;;5086453;28;20396;-63
2023/06/14 10:39:57;;;;;;;2.22;0.80;;;8.20;99.90;;;;;;5075932;28;20036;-63
2023/06/14 10:42:32;;;;;;;3.38;1.00;;;8.10;99.90;;;;;;5081853;28;20086;-63
2023/06/14 10:45:01;;;;;;;3.05;1.42;;;8.00;99.90;;;;;;5085705;28;20032;-63
2023/06/14 10:47:37;;;;;;;4.90;0.98;;;7.80;99.90;;;;;;5085562;28;20392;-64
2023/06/14 10:50:14;;;;;;;2.00;0.82;;;7.60;99.90;;;;;;5084477;28;20504;-66
2023/06/14 10:52:43;;;;;;;6.32;1.67;;;7.50;99.90;;;;;;5082425;28;20059;-66
2023/06/14 10:55:15;;;;;;;4.90;1.00;;;7.40;99.90;;;;;;5082216;28;20078;-65
2023/06/14 10:57:58;;;;;;;2.28;1.02;;;7.30;99.90;;;;;;5084453;28;20114;-65
2023/06/14 11:00:30;;;;;;;2.22;0.80;;;7.40;99.90;;;;;;5078100;28;20028;-64
2023/06/14 11:03:23;;;;;;;3.25;1.05;;;7.40;99.90;;;;;;5084997;28;20040;-65
2023/06/14 11:05:52;;;;;;;7.85;1.40;;;7.30;99.90;;;;;;5084745;28;20043;-64
2023/06/14 11:08:35;;;;;;;2.05;0.88;;;7.30;99.90;;;;;;5083929;28;20031;-64
2023/06/14 11:11:08;;;;;;;3.30;1.10;;;7.30;99.90;;;;;;5082950;28;20083;-64
2023/06/14 11:13:55;;;;;;;2.10;1.00;;;7.20;99.90;;;;;;5085506;28;20377;-65
2023/06/14 11:16:28;;;;;;;6.30;1.05;;;7.20;99.90;;;;;;5079120;28;20419;-66
2023/06/14 11:18:55;;;;;;;5.88;1.10;;;7.30;99.90;;;;;;5080477;28;20024;-63
2023/06/14 11:21:25;;;;;;;14.18;2.30;;;7.40;99.90;;;;;;5083227;28;20031;-65
2023/06/14 11:23:54;;;;;;;28.27;2.90;;;7.50;99.90;;;;;;5081670;28;20040;-66
2023/06/14 11:26:29;;;;;;;19.60;2.50;;;7.80;99.90;;;;;;5066479;28;20036;-64
2023/06/14 11:29:01;;;;;;;39.55;3.30;;;8.00;99.90;;;;;;5077951;28;20731;-64
2023/06/14 11:31:29;;;;;;;8.43;1.42;;;8.20;99.90;;;;;;5082302;28;20031;-64
2023/06/14 11:33:58;;;;;;;6.85;1.60;;;8.50;99.90;;;;;;5088467;28;20049;-64
2023/06/14 11:36:32;;;;;;;6.78;1.23;;;8.70;99.90;;;;;;5079991;28;20024;-65
2023/06/14 11:39:06;;;;;;;5.78;1.08;;;8.90;99.90;;;;;;5069168;28;20366;-64
2023/06/14 11:41:44;;;;;;;6.50;1.40;;;8.80;99.90;;;;;;5082929;28;20031;-64
2023/06/14 11:44:12;;;;;;;6.05;1.55;;;8.60;99.90;;;;;;5085265;28;20043;-65
2023/06/14 11:46:39;;;;;;;6.13;0.93;;;8.50;99.90;;;;;;5080782;28;20841;-65
2023/06/14 11:49:09;;;;;;;3.83;1.35;;;8.20;99.90;;;;;;5083930;28;20563;-64
2023/06/14 11:51:37;;;;;;;5.82;2.30;;;7.90;99.90;;;;;;5082615;28;20133;-64
2023/06/14 11:54:07;;;;;;;5.65;1.60;;;7.70;99.90;;;;;;5084098;28;20062;-65
2023/06/14 11:56:34;;;;;;;5.82;1.75;;;7.50;99.90;;;;;;5084028;28;20075;-65
2023/06/14 11:59:05;;;;;;;12.95;1.33;;;7.30;99.90;;;;;;5082324;28;20033;-65
2023/06/14 12:01:36;;;;;;;10.27;1.70;;;7.30;99.90;;;;;;5086026;28;20044;-64
2023/06/14 12:04:04;;;;;;;11.40;1.85;;;7.20;99.90;;;;;;5083320;28;20554;-65
2023/06/14 12:06:33;;;;;;;5.07;1.15;;;7.00;99.90;;;;;;5083816;28;20086;-64
2023/06/14 12:09:04;;;;;;;6.90;1.42;;;6.90;99.90;;;;;;5083064;28;20054;-64
2023/06/14 12:11:36;;;;;;;8.15;1.38;;;6.70;99.90;;;;;;5089042;28;20388;-65
2023/06/14 12:14:08;;;;;;;6.18;1.33;;;6.50;99.90;;;;;;5087831;28;20111;-65
2023/06/14 12:16:38;;;;;;;7.47;1.38;;;6.40;99.90;;;;;;5081648;28;20036;-64
2023/06/14 12:19:17;;;;;;;9.68;1.33;;;6.30;99.90;;;;;;5088466;28;20036;-65
2023/06/14 12:21:50;;;;;;;6.13;1.17;;;6.20;99.90;;;;;;5089016;28;20249;-65
2023/06/14 12:24:18;;;;;;;3.97;1.10;;;6.20;99.90;;;;;;5089282;28;20073;-64
2023/06/14 12:26:46;;;;;;;7.40;0.90;;;6.10;99.90;;;;;;5087370;28;20035;-64
2023/06/14 12:29:14;;;;;;;6.13;1.20;;;5.90;99.90;;;;;;5092460;28;20707;-65
2023/06/14 12:31:42;;;;;;;7.85;1.10;;;6.00;99.90;;;;;;5091398;28;20668;-66
2023/06/14 12:34:09;;;;;;;19.58;1.50;;;5.90;99.90;;;;;;5090338;28;20028;-66
2023/06/14 12:36:41;;;;;;;9.80;2.03;;;5.90;99.90;;;;;;5079502;28;20062;-66
2023/06/14 12:39:09;;;;;;;3.97;1.15;;;5.90;99.90;;;;;;5085636;28;20024;-66
2023/06/14 12:41:37;;;;;;;6.28;1.33;;;6.00;99.90;;;;;;5088097;28;20027;-65
2023/06/14 12:44:05;;;;;;;9.88;1.42;;;6.00;99.90;;;;;;5087600;28;20111;-66
2023/06/14 12:46:32;;;;;;;5.45;0.90;;;6.00;99.90;;;;;;5088666;28;20101;-65
2023/06/14 12:49:00;;;;;;;10.88;1.17;;;6.10;99.90;;;;;;5089987;28;20046;-65
2023/06/14 12:51:27;;;;;;;8.85;1.77;;;6.10;99.90;;;;;;5086929;28;20103;-65
2023/06/14 12:53:55;;;;;;;6.03;0.98;;;6.00;99.90;;;;;;5088035;28;20027;-63
2023/06/14 12:56:22;;;;;;;5.82;2.13;;;6.00;99.90;;;;;;5088461;28;20032;-65
2023/06/14 12:58:50;;;;;;;4.70;0.98;;;5.90;99.90;;;;;;5085099;28;20048;-66